sensor_id;sensor_type;location;lat;lon;timestamp;P1;durP1;ratioP1;P2;durP2;ratioP2
37085;SDS011;23001;45.952;12.676;2024-03-23T00:55:59;28.38;;;24.98;;
37085;SDS011;23001;45.952;12.676;2024-03-23T00:58:25;27.98;;;24.48;;
37085;SDS011;23001;45.952;12.676;2024-03-23T01:00:51;28.85;;;24.80;;
37085;SDS011;23001;45.952;12.676;2024-03-23T01:03:17;28.45;;;24.77;;
37085;SDS011;23001;45.952;12.676;2024-03-23T01:05:43;29.77;;;25.38;;
37085;SDS011;23001;45.952;12.676;2024-03-23T01:08:08;28.67;;;24.80;;
37085;SDS011;23001;45.952;12.676;2024-03-23T01:10:34;30.65;;;25.27;;
37085;SDS011;23001;45.952;12.676;2024-03-23T01:13:00;28.70;;;24.92;;
37085;SDS011;23001;45.952;12.676;2024-03-23T01:15:26;29.80;;;25.77;;
37085;SDS011;23001;45.952;12.676;2024-03-23T01:17:54;28.02;;;25.02;;
37085;SDS011;23001;45.952;12.676;2024-03-23T01:20:20;29.25;;;25.35;;
37085;SDS011;23001;45.952;12.676;2024-03-23T01:22:46;29.25;;;25.38;;
37085;SDS011;23001;45.952;12.676;2024-03-23T01:25:12;33.90;;;26.67;;
37085;SDS011;23001;45.952;12.676;2024-03-23T01:27:38;32.03;;;26.25;;
37085;SDS011;23001;45.952;12.676;2024-03-23T01:30:04;28.10;;;25.10;;
37085;SDS011;23001;45.952;12.676;2024-03-23T01:32:30;30.10;;;26.45;;
37085;SDS011;23001;45.952;12.676;2024-03-23T01:34:56;29.30;;;26.15;;
37085;SDS011;23001;45.952;12.676;2024-03-23T01:37:22;29.60;;;25.50;;
37085;SDS011;23001;45.952;12.676;2024-03-23T01:39:48;31.67;;;27.08;;
37085;SDS011;23001;45.952;12.676;2024-03-23T01:42:14;30.25;;;25.77;;
37085;SDS011;23001;45.952;12.676;2024-03-23T01:44:40;30.63;;;27.05;;
37085;SDS011;23001;45.952;12.676;2024-03-23T01:47:11;29.27;;;26.10;;
37085;SDS011;23001;45.952;12.676;2024-03-23T01:49:38;28.67;;;25.60;;
37085;SDS011;23001;45.952;12.676;2024-03-23T01:52:04;31.33;;;25.88;;
37085;SDS011;23001;45.952;12.676;2024-03-23T01:54:30;28.17;;;24.70;;
37085;SDS011;23001;45.952;12.676;2024-03-23T01:56:56;28.50;;;25.50;;
37085;SDS011;23001;45.952;12.676;2024-03-23T01:59:25;32.40;;;26.77;;
37085;SDS011;23001;45.952;12.676;2024-03-23T02:01:51;33.30;;;24.85;;
37085;SDS011;23001;45.952;12.676;2024-03-23T02:04:17;29.23;;;24.63;;
37085;SDS011;23001;45.952;12.676;2024-03-23T02:06:42;28.15;;;25.05;;
37085;SDS011;23001;45.952;12.676;2024-03-23T02:09:11;33.30;;;24.63;;
37085;SDS011;23001;45.952;12.676;2024-03-23T02:11:38;28.55;;;24.23;;
37085;SDS011;23001;45.952;12.676;2024-03-23T02:14:04;28.38;;;23.30;;
37085;SDS011;23001;45.952;12.676;2024-03-23T02:16:31;29.05;;;24.10;;
37085;SDS011;23001;45.952;12.676;2024-03-23T02:18:57;31.30;;;22.95;;
37085;SDS011;23001;45.952;12.676;2024-03-23T02:21:25;27.20;;;24.30;;
37085;SDS011;23001;45.952;12.676;2024-03-23T02:23:57;27.15;;;24.27;;
37085;SDS011;23001;45.952;12.676;2024-03-23T02:26:24;27.73;;;24.20;;
37085;SDS011;23001;45.952;12.676;2024-03-23T02:28:50;26.17;;;23.38;;
37085;SDS011;23001;45.952;12.676;2024-03-23T02:31:16;29.10;;;23.00;;
37085;SDS011;23001;45.952;12.676;2024-03-23T02:33:42;26.50;;;23.60;;
37085;SDS011;23001;45.952;12.676;2024-03-23T02:36:07;27.08;;;22.58;;
37085;SDS011;23001;45.952;12.676;2024-03-23T02:38:33;28.92;;;23.45;;
37085;SDS011;23001;45.952;12.676;2024-03-23T02:41:03;26.50;;;23.67;;
37085;SDS011;23001;45.952;12.676;2024-03-23T02:43:29;27.10;;;23.17;;
37085;SDS011;23001;45.952;12.676;2024-03-23T02:45:55;29.17;;;23.27;;
37085;SDS011;23001;45.952;12.676;2024-03-23T02:48:23;27.63;;;23.80;;
37085;SDS011;23001;45.952;12.676;2024-03-23T02:50:49;28.10;;;23.25;;
37085;SDS011;23001;45.952;12.676;2024-03-23T02:53:19;26.08;;;22.60;;
37085;SDS011;23001;45.952;12.676;2024-03-23T02:55:45;26.92;;;22.02;;
37085;SDS011;23001;45.952;12.676;2024-03-23T02:58:11;26.10;;;21.92;;
37085;SDS011;23001;45.952;12.676;2024-03-23T03:00:37;26.63;;;22.98;;
37085;SDS011;23001;45.952;12.676;2024-03-23T03:03:08;25.13;;;22.40;;
37085;SDS011;23001;45.952;12.676;2024-03-23T03:05:34;25.98;;;21.77;;
37085;SDS011;23001;45.952;12.676;2024-03-23T03:08:05;25.85;;;22.48;;
37085;SDS011;23001;45.952;12.676;2024-03-23T03:10:31;27.10;;;22.67;;
37085;SDS011;23001;45.952;12.676;2024-03-23T03:13:02;26.38;;;22.60;;
37085;SDS011;23001;45.952;12.676;2024-03-23T03:15:32;24.65;;;21.95;;
37085;SDS011;23001;45.952;12.676;2024-03-23T03:18:01;26.10;;;20.92;;
37085;SDS011;23001;45.952;12.676;2024-03-23T03:20:27;27.58;;;22.85;;
37085;SDS011;23001;45.952;12.676;2024-03-23T03:22:53;23.63;;;21.13;;
37085;SDS011;23001;45.952;12.676;2024-03-23T03:25:19;27.05;;;21.77;;
37085;SDS011;23001;45.952;12.676;2024-03-23T03:27:47;25.13;;;21.02;;
37085;SDS011;23001;45.952;12.676;2024-03-23T03:30:13;23.85;;;20.30;;
37085;SDS011;23001;45.952;12.676;2024-03-23T03:32:39;22.48;;;20.00;;
37085;SDS011;23001;45.952;12.676;2024-03-23T03:35:08;24.10;;;20.65;;
37085;SDS011;23001;45.952;12.676;2024-03-23T03:37:34;21.65;;;19.35;;
37085;SDS011;23001;45.952;12.676;2024-03-23T03:40:09;26.88;;;20.30;;
37085;SDS011;23001;45.952;12.676;2024-03-23T03:42:52;21.95;;;19.15;;
37085;SDS011;23001;45.952;12.676;2024-03-23T03:45:18;22.48;;;19.00;;
37085;SDS011;23001;45.952;12.676;2024-03-23T03:47:44;21.15;;;18.65;;
37085;SDS011;23001;45.952;12.676;2024-03-23T03:50:10;23.38;;;19.00;;
37085;SDS011;23001;45.952;12.676;2024-03-23T03:52:40;21.00;;;18.80;;
37085;SDS011;23001;45.952;12.676;2024-03-23T03:55:13;21.25;;;18.88;;
37085;SDS011;23001;45.952;12.676;2024-03-23T03:57:49;22.55;;;19.77;;
37085;SDS011;23001;45.952;12.676;2024-03-23T04:00:15;22.95;;;18.20;;
37085;SDS011;23001;45.952;12.676;2024-03-23T04:02:44;23.63;;;18.35;;
37085;SDS011;23001;45.952;12.676;2024-03-23T04:05:14;19.58;;;17.50;;
37085;SDS011;23001;45.952;12.676;2024-03-23T04:07:47;20.38;;;17.70;;
37085;SDS011;23001;45.952;12.676;2024-03-23T04:10:21;20.15;;;17.92;;
37085;SDS011;23001;45.952;12.676;2024-03-23T04:12:51;24.83;;;18.20;;
37085;SDS011;23001;45.952;12.676;2024-03-23T04:15:22;21.95;;;16.48;;
37085;SDS011;23001;45.952;12.676;2024-03-23T04:17:50;21.60;;;17.10;;
37085;SDS011;23001;45.952;12.676;2024-03-23T04:20:23;22.08;;;17.80;;
37085;SDS011;23001;45.952;12.676;2024-03-23T04:22:54;19.73;;;17.63;;
37085;SDS011;23001;45.952;12.676;2024-03-23T04:25:20;22.85;;;17.25;;
37085;SDS011;23001;45.952;12.676;2024-03-23T04:27:46;19.65;;;17.48;;
37085;SDS011;23001;45.952;12.676;2024-03-23T04:30:12;21.20;;;17.77;;
37085;SDS011;23001;45.952;12.676;2024-03-23T04:32:38;21.85;;;18.25;;
37085;SDS011;23001;45.952;12.676;2024-03-23T04:35:08;19.90;;;16.63;;
37085;SDS011;23001;45.952;12.676;2024-03-23T04:37:38;20.63;;;17.15;;
37085;SDS011;23001;45.952;12.676;2024-03-23T04:40:06;21.77;;;17.52;;
37085;SDS011;23001;45.952;12.676;2024-03-23T04:42:36;19.90;;;16.48;;
37085;SDS011;23001;45.952;12.676;2024-03-23T04:45:04;19.95;;;17.08;;
37085;SDS011;23001;45.952;12.676;2024-03-23T04:47:31;18.98;;;15.60;;
37085;SDS011;23001;45.952;12.676;2024-03-23T04:49:57;20.33;;;16.58;;
37085;SDS011;23001;45.952;12.676;2024-03-23T04:52:23;22.58;;;16.15;;
37085;SDS011;23001;45.952;12.676;2024-03-23T04:54:49;18.77;;;16.35;;
37085;SDS011;23001;45.952;12.676;2024-03-23T04:57:15;20.15;;;16.35;;
37085;SDS011;23001;45.952;12.676;2024-03-23T04:59:42;23.85;;;17.80;;
37085;SDS011;23001;45.952;12.676;2024-03-23T05:02:07;18.15;;;16.08;;
37085;SDS011;23001;45.952;12.676;2024-03-23T05:04:33;28.23;;;17.88;;
37085;SDS011;23001;45.952;12.676;2024-03-23T05:07:02;20.30;;;16.65;;
37085;SDS011;23001;45.952;12.676;2024-03-23T05:09:29;20.63;;;15.85;;
37085;SDS011;23001;45.952;12.676;2024-03-23T05:11:59;21.02;;;15.55;;
37085;SDS011;23001;45.952;12.676;2024-03-23T05:14:26;20.70;;;16.25;;
37085;SDS011;23001;45.952;12.676;2024-03-23T05:16:52;18.90;;;15.90;;
37085;SDS011;23001;45.952;12.676;2024-03-23T05:19:18;19.17;;;15.73;;
37085;SDS011;23001;45.952;12.676;2024-03-23T05:21:44;18.60;;;15.90;;
37085;SDS011;23001;45.952;12.676;2024-03-23T05:24:19;20.65;;;15.40;;
37085;SDS011;23001;45.952;12.676;2024-03-23T05:26:51;22.20;;;15.13;;
37085;SDS011;23001;45.952;12.676;2024-03-23T05:29:19;21.70;;;15.43;;
37085;SDS011;23001;45.952;12.676;2024-03-23T05:31:49;20.13;;;15.43;;
37085;SDS011;23001;45.952;12.676;2024-03-23T05:34:20;21.50;;;15.35;;
37085;SDS011;23001;45.952;12.676;2024-03-23T05:36:46;22.15;;;15.20;;
37085;SDS011;23001;45.952;12.676;2024-03-23T05:39:12;17.63;;;14.95;;
37085;SDS011;23001;45.952;12.676;2024-03-23T05:41:41;19.25;;;15.15;;
37085;SDS011;23001;45.952;12.676;2024-03-23T05:44:10;16.90;;;14.73;;
37085;SDS011;23001;45.952;12.676;2024-03-23T05:46:41;16.55;;;13.85;;
37085;SDS011;23001;45.952;12.676;2024-03-23T05:49:07;17.33;;;15.30;;
37085;SDS011;23001;45.952;12.676;2024-03-23T05:51:40;17.45;;;15.52;;
37085;SDS011;23001;45.952;12.676;2024-03-23T05:54:09;17.77;;;14.60;;
37085;SDS011;23001;45.952;12.676;2024-03-23T05:56:40;19.10;;;14.88;;
37085;SDS011;23001;45.952;12.676;2024-03-23T05:59:06;16.67;;;14.73;;
37085;SDS011;23001;45.952;12.676;2024-03-23T06:01:34;17.38;;;14.32;;
37085;SDS011;23001;45.952;12.676;2024-03-23T06:04:00;15.77;;;14.27;;
37085;SDS011;23001;45.952;12.676;2024-03-23T06:06:31;17.35;;;15.05;;
37085;SDS011;23001;45.952;12.676;2024-03-23T06:09:00;16.75;;;14.18;;
37085;SDS011;23001;45.952;12.676;2024-03-23T06:11:34;16.33;;;14.25;;
37085;SDS011;23001;45.952;12.676;2024-03-23T06:14:11;16.65;;;14.43;;
37085;SDS011;23001;45.952;12.676;2024-03-23T06:16:46;18.83;;;14.63;;
37085;SDS011;23001;45.952;12.676;2024-03-23T06:19:18;19.10;;;15.55;;
37085;SDS011;23001;45.952;12.676;2024-03-23T06:21:52;17.73;;;14.10;;
37085;SDS011;23001;45.952;12.676;2024-03-23T06:24:35;16.80;;;13.85;;
37085;SDS011;23001;45.952;12.676;2024-03-23T06:27:04;16.42;;;14.13;;
37085;SDS011;23001;45.952;12.676;2024-03-23T06:29:38;17.73;;;13.65;;
37085;SDS011;23001;45.952;12.676;2024-03-23T06:32:06;16.40;;;14.15;;
37085;SDS011;23001;45.952;12.676;2024-03-23T06:34:40;16.35;;;13.20;;
37085;SDS011;23001;45.952;12.676;2024-03-23T06:37:20;16.60;;;13.35;;
37085;SDS011;23001;45.952;12.676;2024-03-23T06:39:46;15.02;;;13.43;;
37085;SDS011;23001;45.952;12.676;2024-03-23T06:42:12;14.45;;;12.95;;
37085;SDS011;23001;45.952;12.676;2024-03-23T06:44:41;16.02;;;14.32;;
37085;SDS011;23001;45.952;12.676;2024-03-23T06:47:07;15.90;;;13.20;;
37085;SDS011;23001;45.952;12.676;2024-03-23T06:49:33;14.40;;;12.90;;
37085;SDS011;23001;45.952;12.676;2024-03-23T06:51:59;15.55;;;12.13;;
37085;SDS011;23001;45.952;12.676;2024-03-23T06:54:25;15.30;;;11.13;;
37085;SDS011;23001;45.952;12.676;2024-03-23T06:56:52;13.50;;;11.90;;
37085;SDS011;23001;45.952;12.676;2024-03-23T06:59:17;16.30;;;12.32;;
37085;SDS011;23001;45.952;12.676;2024-03-23T07:01:43;12.48;;;10.75;;
37085;SDS011;23001;45.952;12.676;2024-03-23T07:04:09;16.35;;;11.27;;
37085;SDS011;23001;45.952;12.676;2024-03-23T07:06:41;13.52;;;12.10;;
37085;SDS011;23001;45.952;12.676;2024-03-23T07:09:08;12.55;;;10.88;;
37085;SDS011;23001;45.952;12.676;2024-03-23T07:11:34;13.60;;;11.82;;
37085;SDS011;23001;45.952;12.676;2024-03-23T07:14:03;11.55;;;10.27;;
37085;SDS011;23001;45.952;12.676;2024-03-23T07:16:29;13.48;;;12.05;;
37085;SDS011;23001;45.952;12.676;2024-03-23T07:18:55;13.57;;;11.90;;
37085;SDS011;23001;45.952;12.676;2024-03-23T07:21:21;13.98;;;11.70;;
37085;SDS011;23001;45.952;12.676;2024-03-23T07:23:47;13.30;;;11.05;;
37085;SDS011;23001;45.952;12.676;2024-03-23T07:26:13;14.75;;;11.23;;
37085;SDS011;23001;45.952;12.676;2024-03-23T07:28:39;15.45;;;12.18;;
37085;SDS011;23001;45.952;12.676;2024-03-23T07:31:12;16.33;;;13.07;;
37085;SDS011;23001;45.952;12.676;2024-03-23T07:33:43;16.85;;;13.52;;
37085;SDS011;23001;45.952;12.676;2024-03-23T07:36:10;20.02;;;12.35;;
37085;SDS011;23001;45.952;12.676;2024-03-23T07:38:36;14.90;;;13.30;;
37085;SDS011;23001;45.952;12.676;2024-03-23T07:41:05;14.88;;;13.15;;
37085;SDS011;23001;45.952;12.676;2024-03-23T07:43:33;14.43;;;12.20;;
37085;SDS011;23001;45.952;12.676;2024-03-23T07:45:59;17.33;;;13.90;;
37085;SDS011;23001;45.952;12.676;2024-03-23T07:48:26;15.10;;;12.48;;
37085;SDS011;23001;45.952;12.676;2024-03-23T07:53:29;16.00;;;12.90;;
37085;SDS011;23001;45.952;12.676;2024-03-23T07:55:58;15.52;;;13.15;;
37085;SDS011;23001;45.952;12.676;2024-03-23T07:58:25;16.65;;;12.65;;
37085;SDS011;23001;45.952;12.676;2024-03-23T08:00:52;17.80;;;14.05;;
37085;SDS011;23001;45.952;12.676;2024-03-23T08:03:18;17.70;;;14.55;;
37085;SDS011;23001;45.952;12.676;2024-03-23T08:05:44;15.93;;;13.18;;
37085;SDS011;23001;45.952;12.676;2024-03-23T08:08:10;17.70;;;13.98;;
37085;SDS011;23001;45.952;12.676;2024-03-23T08:10:36;17.75;;;14.80;;
37085;SDS011;23001;45.952;12.676;2024-03-23T08:13:02;17.85;;;14.68;;
37085;SDS011;23001;45.952;12.676;2024-03-23T08:15:30;17.02;;;14.90;;
37085;SDS011;23001;45.952;12.676;2024-03-23T08:17:58;17.38;;;14.60;;
37085;SDS011;23001;45.952;12.676;2024-03-23T08:20:24;17.15;;;14.95;;
37085;SDS011;23001;45.952;12.676;2024-03-23T08:22:50;17.88;;;15.07;;
37085;SDS011;23001;45.952;12.676;2024-03-23T08:28:14;23.73;;;16.70;;
37085;SDS011;23001;45.952;12.676;2024-03-23T08:30:40;19.42;;;15.65;;
37085;SDS011;23001;45.952;12.676;2024-03-23T08:33:05;18.60;;;15.48;;
37085;SDS011;23001;45.952;12.676;2024-03-23T08:35:31;23.98;;;19.05;;
37085;SDS011;23001;45.952;12.676;2024-03-23T08:37:56;21.63;;;17.80;;
37085;SDS011;23001;45.952;12.676;2024-03-23T08:40:22;20.50;;;17.27;;
37085;SDS011;23001;45.952;12.676;2024-03-23T08:42:48;23.42;;;17.25;;
37085;SDS011;23001;45.952;12.676;2024-03-23T08:45:14;25.05;;;19.52;;
37085;SDS011;23001;45.952;12.676;2024-03-23T08:47:39;27.80;;;22.35;;
37085;SDS011;23001;45.952;12.676;2024-03-23T08:50:05;28.02;;;22.15;;
37085;SDS011;23001;45.952;12.676;2024-03-23T08:52:31;29.33;;;22.42;;
37085;SDS011;23001;45.952;12.676;2024-03-23T08:54:57;29.90;;;22.98;;
37085;SDS011;23001;45.952;12.676;2024-03-23T08:57:23;29.42;;;22.83;;
37085;SDS011;23001;45.952;12.676;2024-03-23T08:59:49;30.10;;;23.60;;
37085;SDS011;23001;45.952;12.676;2024-03-23T09:02:15;29.35;;;24.13;;
37085;SDS011;23001;45.952;12.676;2024-03-23T09:04:41;28.95;;;22.58;;
37085;SDS011;23001;45.952;12.676;2024-03-23T09:07:06;26.90;;;22.58;;
37085;SDS011;23001;45.952;12.676;2024-03-23T09:09:32;26.10;;;22.27;;
37085;SDS011;23001;45.952;12.676;2024-03-23T09:11:58;28.60;;;23.48;;
37085;SDS011;23001;45.952;12.676;2024-03-23T09:14:24;32.55;;;25.17;;
37085;SDS011;23001;45.952;12.676;2024-03-23T09:16:50;31.42;;;24.15;;
37085;SDS011;23001;45.952;12.676;2024-03-23T09:19:16;30.40;;;25.52;;
37085;SDS011;23001;45.952;12.676;2024-03-23T09:21:43;32.72;;;26.35;;
37085;SDS011;23001;45.952;12.676;2024-03-23T09:24:08;32.75;;;25.88;;
37085;SDS011;23001;45.952;12.676;2024-03-23T09:26:34;33.92;;;27.40;;
37085;SDS011;23001;45.952;12.676;2024-03-23T09:29:00;33.85;;;25.83;;
37085;SDS011;23001;45.952;12.676;2024-03-23T09:31:26;35.30;;;27.42;;
37085;SDS011;23001;45.952;12.676;2024-03-23T09:33:51;33.10;;;28.20;;
37085;SDS011;23001;45.952;12.676;2024-03-23T09:36:17;34.88;;;27.48;;
37085;SDS011;23001;45.952;12.676;2024-03-23T09:38:43;36.00;;;28.10;;
37085;SDS011;23001;45.952;12.676;2024-03-23T09:41:09;39.50;;;29.73;;
37085;SDS011;23001;45.952;12.676;2024-03-23T09:43:35;34.28;;;27.85;;
37085;SDS011;23001;45.952;12.676;2024-03-23T09:46:01;35.42;;;28.80;;
37085;SDS011;23001;45.952;12.676;2024-03-23T09:48:27;33.70;;;28.05;;
37085;SDS011;23001;45.952;12.676;2024-03-23T09:50:53;40.55;;;29.55;;
37085;SDS011;23001;45.952;12.676;2024-03-23T09:53:19;35.00;;;28.60;;
37085;SDS011;23001;45.952;12.676;2024-03-23T09:55:45;37.70;;;29.55;;
37085;SDS011;23001;45.952;12.676;2024-03-23T09:58:14;38.60;;;30.92;;
37085;SDS011;23001;45.952;12.676;2024-03-23T10:00:41;37.53;;;30.20;;
37085;SDS011;23001;45.952;12.676;2024-03-23T10:03:07;35.78;;;28.95;;
37085;SDS011;23001;45.952;12.676;2024-03-23T10:05:36;38.88;;;30.20;;
37085;SDS011;23001;45.952;12.676;2024-03-23T10:10:42;40.28;;;32.67;;
37085;SDS011;23001;45.952;12.676;2024-03-23T10:13:09;39.63;;;31.27;;
37085;SDS011;23001;45.952;12.676;2024-03-23T10:15:37;42.15;;;31.80;;
37085;SDS011;23001;45.952;12.676;2024-03-23T10:21:18;36.95;;;29.77;;
37085;SDS011;23001;45.952;12.676;2024-03-23T10:23:40;45.38;;;29.95;;
37085;SDS011;23001;45.952;12.676;2024-03-23T10:31:32;29.98;;;26.33;;
37085;SDS011;23001;45.952;12.676;2024-03-23T10:34:01;34.20;;;28.55;;
37085;SDS011;23001;45.952;12.676;2024-03-23T10:36:28;36.70;;;27.88;;
37085;SDS011;23001;45.952;12.676;2024-03-23T10:38:55;34.38;;;27.42;;
37085;SDS011;23001;45.952;12.676;2024-03-23T10:41:25;32.80;;;26.33;;
37085;SDS011;23001;45.952;12.676;2024-03-23T10:43:53;31.83;;;26.77;;
37085;SDS011;23001;45.952;12.676;2024-03-23T10:46:20;29.20;;;25.55;;
37085;SDS011;23001;45.952;12.676;2024-03-23T10:48:46;29.77;;;26.45;;
37085;SDS011;23001;45.952;12.676;2024-03-23T10:51:12;32.55;;;26.33;;
37085;SDS011;23001;45.952;12.676;2024-03-23T10:53:39;29.45;;;25.40;;
37085;SDS011;23001;45.952;12.676;2024-03-23T10:56:05;29.73;;;24.73;;
37085;SDS011;23001;45.952;12.676;2024-03-23T10:58:36;28.15;;;23.58;;
37085;SDS011;23001;45.952;12.676;2024-03-23T11:01:15;38.38;;;27.92;;
37085;SDS011;23001;45.952;12.676;2024-03-23T11:03:44;29.13;;;23.38;;
37085;SDS011;23001;45.952;12.676;2024-03-23T11:06:12;25.60;;;21.65;;
37085;SDS011;23001;45.952;12.676;2024-03-23T11:09:10;28.75;;;23.20;;
37085;SDS011;23001;45.952;12.676;2024-03-23T11:12:17;25.77;;;21.55;;
37085;SDS011;23001;45.952;12.676;2024-03-23T11:14:52;24.13;;;21.23;;
37085;SDS011;23001;45.952;12.676;2024-03-23T11:17:18;25.23;;;22.52;;
37085;SDS011;23001;45.952;12.676;2024-03-23T11:19:52;24.02;;;21.45;;
37085;SDS011;23001;45.952;12.676;2024-03-23T11:27:53;19.85;;;16.67;;
37085;SDS011;23001;45.952;12.676;2024-03-23T11:32:56;21.63;;;19.33;;
37085;SDS011;23001;45.952;12.676;2024-03-23T11:38:08;22.23;;;19.55;;
37085;SDS011;23001;45.952;12.676;2024-03-23T11:40:37;23.30;;;19.40;;
37085;SDS011;23001;45.952;12.676;2024-03-23T11:43:23;21.15;;;18.95;;
37085;SDS011;23001;45.952;12.676;2024-03-23T11:45:50;21.55;;;18.85;;
37085;SDS011;23001;45.952;12.676;2024-03-23T11:48:24;23.63;;;19.25;;
37085;SDS011;23001;45.952;12.676;2024-03-23T11:50:50;23.77;;;19.10;;
37085;SDS011;23001;45.952;12.676;2024-03-23T11:55:52;20.63;;;18.10;;
37085;SDS011;23001;45.952;12.676;2024-03-23T11:58:19;19.98;;;17.85;;
37085;SDS011;23001;45.952;12.676;2024-03-23T12:00:49;19.27;;;17.15;;
37085;SDS011;23001;45.952;12.676;2024-03-23T12:03:18;17.90;;;16.10;;
37085;SDS011;23001;45.952;12.676;2024-03-23T12:05:51;18.77;;;16.77;;
37085;SDS011;23001;45.952;12.676;2024-03-23T12:08:24;20.60;;;18.40;;
37085;SDS011;23001;45.952;12.676;2024-03-23T12:13:31;20.63;;;18.35;;
37085;SDS011;23001;45.952;12.676;2024-03-23T12:16:08;21.33;;;19.25;;
37085;SDS011;23001;45.952;12.676;2024-03-23T12:18:34;15.40;;;13.80;;
37085;SDS011;23001;45.952;12.676;2024-03-23T12:21:00;14.32;;;12.60;;
37085;SDS011;23001;45.952;12.676;2024-03-23T12:23:26;14.48;;;13.00;;
37085;SDS011;23001;45.952;12.676;2024-03-23T12:25:52;13.40;;;12.13;;
37085;SDS011;23001;45.952;12.676;2024-03-23T12:28:18;14.18;;;12.77;;
37085;SDS011;23001;45.952;12.676;2024-03-23T12:30:44;14.02;;;12.60;;
37085;SDS011;23001;45.952;12.676;2024-03-23T12:33:09;14.35;;;11.95;;
37085;SDS011;23001;45.952;12.676;2024-03-23T12:35:36;13.15;;;11.82;;
37085;SDS011;23001;45.952;12.676;2024-03-23T12:38:02;11.23;;;10.02;;
37085;SDS011;23001;45.952;12.676;2024-03-23T12:40:28;11.18;;;10.07;;
37085;SDS011;23001;45.952;12.676;2024-03-23T12:42:54;10.65;;;9.55;;
37085;SDS011;23001;45.952;12.676;2024-03-23T12:45:21;11.18;;;10.00;;
37085;SDS011;23001;45.952;12.676;2024-03-23T12:51:14;10.75;;;8.43;;
37085;SDS011;23001;45.952;12.676;2024-03-23T12:53:40;8.95;;;7.43;;
37085;SDS011;23001;45.952;12.676;2024-03-23T12:56:05;7.93;;;7.05;;
37085;SDS011;23001;45.952;12.676;2024-03-23T12:58:32;7.78;;;7.00;;
37085;SDS011;23001;45.952;12.676;2024-03-23T13:01:00;7.45;;;6.75;;
37085;SDS011;23001;45.952;12.676;2024-03-23T13:03:26;7.80;;;6.45;;
37085;SDS011;23001;45.952;12.676;2024-03-23T13:05:52;8.75;;;7.85;;
37085;SDS011;23001;45.952;12.676;2024-03-23T13:08:18;8.50;;;7.70;;
37085;SDS011;23001;45.952;12.676;2024-03-23T13:10:43;7.82;;;7.00;;
37085;SDS011;23001;45.952;12.676;2024-03-23T13:13:10;5.70;;;5.10;;
37085;SDS011;23001;45.952;12.676;2024-03-23T13:15:35;6.70;;;5.32;;
37085;SDS011;23001;45.952;12.676;2024-03-23T13:18:01;5.63;;;5.13;;
37085;SDS011;23001;45.952;12.676;2024-03-23T13:20:27;7.00;;;5.13;;
37085;SDS011;23001;45.952;12.676;2024-03-23T13:22:53;5.20;;;4.60;;
37085;SDS011;23001;45.952;12.676;2024-03-23T13:25:19;5.90;;;5.30;;
37085;SDS011;23001;45.952;12.676;2024-03-23T13:27:45;5.85;;;5.25;;
37085;SDS011;23001;45.952;12.676;2024-03-23T13:30:11;7.00;;;5.30;;
37085;SDS011;23001;45.952;12.676;2024-03-23T13:32:37;6.10;;;5.50;;
37085;SDS011;23001;45.952;12.676;2024-03-23T13:35:03;6.30;;;5.70;;
37085;SDS011;23001;45.952;12.676;2024-03-23T13:37:29;9.27;;;7.63;;
37085;SDS011;23001;45.952;12.676;2024-03-23T13:39:54;7.68;;;6.88;;
37085;SDS011;23001;45.952;12.676;2024-03-23T13:42:20;8.77;;;7.32;;
37085;SDS011;23001;45.952;12.676;2024-03-23T13:44:46;8.35;;;7.50;;
37085;SDS011;23001;45.952;12.676;2024-03-23T13:47:12;8.00;;;7.20;;
37085;SDS011;23001;45.952;12.676;2024-03-23T13:49:40;8.52;;;6.63;;
37085;SDS011;23001;45.952;12.676;2024-03-23T13:52:06;6.57;;;5.57;;
37085;SDS011;23001;45.952;12.676;2024-03-23T13:54:35;6.50;;;5.80;;
37085;SDS011;23001;45.952;12.676;2024-03-23T13:57:02;8.27;;;5.35;;
37085;SDS011;23001;45.952;12.676;2024-03-23T13:59:27;9.25;;;5.43;;
37085;SDS011;23001;45.952;12.676;2024-03-23T14:01:54;8.05;;;5.80;;
37085;SDS011;23001;45.952;12.676;2024-03-23T14:04:20;8.52;;;7.72;;
37085;SDS011;23001;45.952;12.676;2024-03-23T14:06:46;11.18;;;9.35;;
37085;SDS011;23001;45.952;12.676;2024-03-23T14:09:12;10.18;;;9.07;;
37085;SDS011;23001;45.952;12.676;2024-03-23T14:11:39;15.27;;;11.02;;
37085;SDS011;23001;45.952;12.676;2024-03-23T14:14:06;10.48;;;9.25;;
37085;SDS011;23001;45.952;12.676;2024-03-23T14:16:33;14.73;;;12.00;;
37085;SDS011;23001;45.952;12.676;2024-03-23T14:18:58;13.85;;;12.02;;
37085;SDS011;23001;45.952;12.676;2024-03-23T14:21:24;12.35;;;11.10;;
37085;SDS011;23001;45.952;12.676;2024-03-23T14:23:50;13.25;;;11.85;;
37085;SDS011;23001;45.952;12.676;2024-03-23T14:26:16;12.77;;;11.45;;
37085;SDS011;23001;45.952;12.676;2024-03-23T14:28:42;15.25;;;11.02;;
37085;SDS011;23001;45.952;12.676;2024-03-23T14:31:07;13.75;;;11.70;;
37085;SDS011;23001;45.952;12.676;2024-03-23T14:33:37;19.55;;;13.93;;
37085;SDS011;23001;45.952;12.676;2024-03-23T14:36:04;22.58;;;15.82;;
37085;SDS011;23001;45.952;12.676;2024-03-23T14:38:33;20.60;;;18.08;;
37085;SDS011;23001;45.952;12.676;2024-03-23T14:40:59;23.35;;;19.75;;
37085;SDS011;23001;45.952;12.676;2024-03-23T14:43:25;21.33;;;19.02;;
37085;SDS011;23001;45.952;12.676;2024-03-23T14:46:10;21.92;;;19.52;;
37085;SDS011;23001;45.952;12.676;2024-03-23T14:48:40;22.05;;;18.95;;
37085;SDS011;23001;45.952;12.676;2024-03-23T14:51:08;23.08;;;19.27;;
37085;SDS011;23001;45.952;12.676;2024-03-23T14:53:37;25.38;;;20.80;;
37085;SDS011;23001;45.952;12.676;2024-03-23T14:56:07;25.17;;;19.98;;
37085;SDS011;23001;45.952;12.676;2024-03-23T14:58:35;26.33;;;20.98;;
37085;SDS011;23001;45.952;12.676;2024-03-23T15:01:04;23.13;;;20.65;;
37085;SDS011;23001;45.952;12.676;2024-03-23T15:03:34;28.40;;;21.90;;
37085;SDS011;23001;45.952;12.676;2024-03-23T15:06:08;24.60;;;21.48;;
37085;SDS011;23001;45.952;12.676;2024-03-23T15:08:37;25.25;;;22.30;;
37085;SDS011;23001;45.952;12.676;2024-03-23T15:11:03;29.20;;;22.17;;
37085;SDS011;23001;45.952;12.676;2024-03-23T15:13:32;24.40;;;21.15;;
37085;SDS011;23001;45.952;12.676;2024-03-23T15:15:59;23.52;;;20.60;;
37085;SDS011;23001;45.952;12.676;2024-03-23T15:18:24;25.25;;;21.13;;
37085;SDS011;23001;45.952;12.676;2024-03-23T15:20:56;23.50;;;20.90;;
37085;SDS011;23001;45.952;12.676;2024-03-23T15:23:23;23.83;;;20.63;;
37085;SDS011;23001;45.952;12.676;2024-03-23T15:25:55;27.27;;;21.90;;
37085;SDS011;23001;45.952;12.676;2024-03-23T15:28:22;25.90;;;21.30;;
37085;SDS011;23001;45.952;12.676;2024-03-23T15:30:48;27.50;;;22.23;;
37085;SDS011;23001;45.952;12.676;2024-03-23T15:33:15;27.33;;;23.30;;
37085;SDS011;23001;45.952;12.676;2024-03-23T15:35:42;26.85;;;23.08;;
37085;SDS011;23001;45.952;12.676;2024-03-23T15:38:08;26.33;;;22.77;;
37085;SDS011;23001;45.952;12.676;2024-03-23T15:40:35;27.40;;;22.67;;
37085;SDS011;23001;45.952;12.676;2024-03-23T15:43:00;30.17;;;24.15;;
37085;SDS011;23001;45.952;12.676;2024-03-23T15:45:26;30.50;;;23.20;;